Cudworth, Canada
Current Conditions -  °F | °C
As of 6:00 AM on Wednesday 28 Jan 2015 (Local Time) from CYXE Reporting Station
Light Snow Light Snow  
Wind Chill: -13°   Ceiling: 2000
Heat Index: -7°   Visibility: 6mi
Dew Point: -8°   Wind: 9mph
Humidity: 93%   Direction: 10°N
Pressure: 29.98"   Gusts: NA
Location:  52.48°N, 105.72°W
Report Text: CYXE 281200Z 01008KT 6SM -SN OVC020 M07/M08 A2998 RMK SC8 SLP185
Loading
Personal Weather Stations






























Interactive Weather Map New forecast layout! Learn more

10-Day Weather Forecast

Advertisements
Track Severe Weather on mobile